createdAt,value
2023-04-15T00:01:00.202Z,77.40
2023-04-15T00:03:28.740Z,77.49
2023-04-15T00:05:56.619Z,77.56
2023-04-15T00:08:24.847Z,77.62
2023-04-15T00:10:52.820Z,77.59
2023-04-15T00:13:21.878Z,77.38
2023-04-15T00:15:49.619Z,77.34
2023-04-15T00:18:17.401Z,77.44
2023-04-15T00:20:45.139Z,77.47
2023-04-15T00:23:12.884Z,77.16
2023-04-15T00:25:40.720Z,76.53
2023-04-15T00:28:08.657Z,75.79
2023-04-15T00:30:38.048Z,75.48
2023-04-15T00:33:05.891Z,75.09
2023-04-15T00:35:33.881Z,74.91
2023-04-15T00:38:01.598Z,75.14
2023-04-15T00:40:29.336Z,75.22
2023-04-15T00:42:57.133Z,75.72
2023-04-15T00:45:25.254Z,75.78
2023-04-15T00:47:54.849Z,76.19
2023-04-15T00:50:22.766Z,76.87
2023-04-15T00:52:50.701Z,77.88
2023-04-15T00:55:19.315Z,78.46
2023-04-15T00:57:47.562Z,78.97
2023-04-15T01:00:16.604Z,79.18
2023-04-15T01:02:44.488Z,79.28
2023-04-15T01:05:13.941Z,79.03
2023-04-15T01:07:41.689Z,79.08
2023-04-15T01:10:10.453Z,79.99
2023-04-15T01:12:39.518Z,79.87
2023-04-15T01:15:09.432Z,79.65
2023-04-15T01:17:37.437Z,79.23
2023-04-15T01:20:06.209Z,79.34
2023-04-15T01:22:35.687Z,79.46
2023-04-15T01:25:09.657Z,79.82
2023-04-15T01:27:40.977Z,79.56
2023-04-15T01:30:10.587Z,79.21
2023-04-15T01:32:38.785Z,79.20
2023-04-15T01:35:07.704Z,79.14
2023-04-15T01:37:35.941Z,79.88
2023-04-15T01:40:03.913Z,80.20
2023-04-15T01:42:31.648Z,80.26
2023-04-15T01:45:00.860Z,80.71
2023-04-15T01:47:28.718Z,80.68
2023-04-15T01:49:56.906Z,80.39
2023-04-15T01:52:24.651Z,80.00
2023-04-15T01:54:52.420Z,79.91
2023-04-15T01:57:20.100Z,80.18
2023-04-15T01:59:47.865Z,80.08
2023-04-15T02:02:17.462Z,80.01
2023-04-15T02:04:45.531Z,79.92
2023-04-15T02:07:13.347Z,79.58
2023-04-15T02:09:41.091Z,79.79
2023-04-15T02:12:09.205Z,80.03
2023-04-15T02:14:37.217Z,80.28
2023-04-15T02:17:08.515Z,80.48
2023-04-15T02:19:37.672Z,80.31
2023-04-15T02:22:05.365Z,80.32
2023-04-15T02:24:33.020Z,80.41
2023-04-15T02:27:01.085Z,80.09
2023-04-15T02:29:28.765Z,80.46
2023-04-15T02:31:56.929Z,80.40
2023-04-15T02:34:24.687Z,80.37
2023-04-15T02:36:57.101Z,80.31
2023-04-15T02:39:24.870Z,80.59
2023-04-15T02:41:52.802Z,80.16
2023-04-15T02:44:20.620Z,80.33
2023-04-15T02:46:50.803Z,80.49
2023-04-15T02:49:18.527Z,80.54
2023-04-15T02:51:48.701Z,80.56
2023-04-15T02:54:17.945Z,80.87
2023-04-15T02:56:45.745Z,80.39
2023-04-15T02:59:14.016Z,80.33
2023-04-15T03:01:41.711Z,79.93
2023-04-15T03:04:09.580Z,80.07
2023-04-15T03:06:37.411Z,80.14
2023-04-15T03:09:05.561Z,79.82
2023-04-15T03:11:36.434Z,79.83
2023-04-15T03:14:04.207Z,80.20
2023-04-15T03:16:31.931Z,80.21
2023-04-15T03:18:59.833Z,80.82
2023-04-15T03:21:27.775Z,81.38
2023-04-15T03:23:56.297Z,81.74
2023-04-15T03:26:28.899Z,82.05
2023-04-15T03:28:58.466Z,81.70
2023-04-15T03:31:26.559Z,82.10
2023-04-15T03:33:54.342Z,81.87
2023-04-15T03:36:22.142Z,81.93
2023-04-15T03:38:50.403Z,82.04
2023-04-15T03:41:18.170Z,82.17
2023-04-15T03:43:45.817Z,82.73
2023-04-15T03:46:14.879Z,82.62
2023-04-15T03:48:42.551Z,82.25
2023-04-15T03:51:10.213Z,82.25
2023-04-15T03:53:37.947Z,82.38
2023-04-15T03:56:06.535Z,81.89
2023-04-15T03:58:34.191Z,81.48
2023-04-15T04:01:02.086Z,81.11
2023-04-15T04:03:31.817Z,80.68
2023-04-15T04:05:59.577Z,80.58
2023-04-15T04:08:27.595Z,81.10
2023-04-15T04:10:55.336Z,80.85
2023-04-15T04:13:23.024Z,81.01
2023-04-15T04:15:50.756Z,81.26
2023-04-15T04:18:18.509Z,81.43
2023-04-15T04:20:47.888Z,81.57
2023-04-15T04:23:15.627Z,81.52
2023-04-15T04:25:43.648Z,81.54
2023-04-15T04:28:11.611Z,81.46
2023-04-15T04:30:39.384Z,81.87
2023-04-15T04:33:07.892Z,82.03
2023-04-15T04:35:37.670Z,81.71
2023-04-15T04:38:06.768Z,81.78
2023-04-15T04:40:34.638Z,81.74
2023-04-15T04:43:02.360Z,82.06
2023-04-15T04:45:30.116Z,81.95
2023-04-15T04:47:57.913Z,82.20
2023-04-15T04:50:25.650Z,82.44
2023-04-15T04:52:53.487Z,82.81
2023-04-15T04:55:22.586Z,83.32
2023-04-15T04:57:50.658Z,82.93
2023-04-15T05:00:19.204Z,82.45
2023-04-15T05:02:47.331Z,82.19
2023-04-15T05:05:15.083Z,81.76
2023-04-15T05:07:42.852Z,81.65
2023-04-15T05:10:11.469Z,81.56
2023-04-15T05:12:40.525Z,81.80
2023-04-15T05:15:09.653Z,81.96
2023-04-15T05:17:37.397Z,82.01
2023-04-15T05:20:05.715Z,82.29
2023-04-15T05:22:33.419Z,82.21
2023-04-15T05:25:01.117Z,82.20
2023-04-15T05:27:28.896Z,82.26
2023-04-15T05:29:57.916Z,82.62
2023-04-15T05:32:25.657Z,82.51
2023-04-15T05:34:53.351Z,82.61
2023-04-15T05:37:22.306Z,82.94
2023-04-15T05:39:50.055Z,82.59
2023-04-15T05:42:17.775Z,82.59
2023-04-15T05:44:45.781Z,82.56
2023-04-15T05:47:14.853Z,82.02
2023-04-15T05:49:42.463Z,82.24
2023-04-15T05:52:10.323Z,82.37
2023-04-15T05:54:38.933Z,82.44
2023-04-15T05:57:07.906Z,82.23
2023-04-15T05:59:35.536Z,82.13
2023-04-15T06:02:03.598Z,82.71
2023-04-15T06:04:32.981Z,82.75
2023-04-15T06:07:00.785Z,82.29
2023-04-15T06:09:28.952Z,81.75
2023-04-15T06:11:57.142Z,81.54
2023-04-15T06:14:24.987Z,81.22
2023-04-15T06:16:52.726Z,80.92
2023-04-15T06:19:20.568Z,80.66
2023-04-15T06:21:49.988Z,81.11
2023-04-15T06:24:18.022Z,81.16
2023-04-15T06:26:45.838Z,81.94
2023-04-15T06:29:13.662Z,82.10
2023-04-15T06:31:41.508Z,82.48
2023-04-15T06:34:09.373Z,82.25
2023-04-15T06:36:37.073Z,81.99
2023-04-15T06:39:06.234Z,82.20
2023-04-15T06:41:34.274Z,82.31
2023-04-15T06:44:02.213Z,82.85
2023-04-15T06:46:29.943Z,82.72
2023-04-15T06:48:57.573Z,83.13
2023-04-15T06:51:26.742Z,82.31
2023-04-15T06:53:54.666Z,81.28
2023-04-15T06:56:23.786Z,81.11
2023-04-15T06:58:51.679Z,80.20
2023-04-15T07:01:19.492Z,79.07
2023-04-15T07:03:47.322Z,77.65
2023-04-15T07:06:15.104Z,78.00
2023-04-15T07:08:42.853Z,76.81
2023-04-15T07:11:10.601Z,75.54
2023-04-15T07:13:39.699Z,74.79
2023-04-15T07:16:07.576Z,74.31
2023-04-15T07:18:36.386Z,74.21
2023-04-15T07:21:04.344Z,73.49
2023-04-15T07:23:32.192Z,72.97
2023-04-15T07:26:01.060Z,73.40
2023-04-15T07:28:28.793Z,73.13
2023-04-15T07:30:58.184Z,73.10
2023-04-15T07:33:25.927Z,73.36
2023-04-15T07:35:53.742Z,73.02
2023-04-15T07:38:21.578Z,73.16
2023-04-15T07:40:49.632Z,72.00
2023-04-15T07:43:17.552Z,70.89
2023-04-15T07:45:45.217Z,69.63
2023-04-15T07:48:14.273Z,70.05
2023-04-15T07:50:41.993Z,69.28
2023-04-15T07:53:09.747Z,69.04
2023-04-15T07:55:37.438Z,68.15
2023-04-15T07:58:05.085Z,66.83
2023-04-15T08:00:33.547Z,67.41
2023-04-15T08:03:01.333Z,67.09
2023-04-15T08:05:30.534Z,67.17
2023-04-15T08:07:58.683Z,66.70
2023-04-15T08:10:26.483Z,65.36
2023-04-15T08:12:54.707Z,65.11
2023-04-15T08:15:22.554Z,64.92
2023-04-15T08:17:50.556Z,64.43
2023-04-15T08:20:18.939Z,63.85
2023-04-15T08:22:51.940Z,64.35
2023-04-15T08:25:20.051Z,64.14
2023-04-15T08:27:47.863Z,64.16
2023-04-15T08:30:15.682Z,64.42
2023-04-15T08:32:44.016Z,63.40
2023-04-15T08:35:11.749Z,62.46
2023-04-15T08:37:39.420Z,60.76
2023-04-15T08:40:10.488Z,59.47
2023-04-15T08:42:44.930Z,58.06
2023-04-15T08:45:13.223Z,57.66
2023-04-15T08:47:42.332Z,58.87
2023-04-15T08:50:11.759Z,59.16
2023-04-15T08:52:40.715Z,59.10
2023-04-15T08:55:11.585Z,59.22
2023-04-15T08:57:39.900Z,59.13
2023-04-15T09:00:09.513Z,59.19
2023-04-15T09:02:37.495Z,59.42
2023-04-15T09:05:07.590Z,59.53
2023-04-15T09:07:35.865Z,59.44
2023-04-15T09:10:04.584Z,58.66
2023-04-15T09:12:36.007Z,59.41
2023-04-15T09:15:03.784Z,58.21
2023-04-15T09:17:34.462Z,57.75
2023-04-15T09:20:09.840Z,57.42
2023-04-15T09:22:38.179Z,56.95
2023-04-15T09:25:26.554Z,57.23
2023-04-15T09:27:57.501Z,57.53
2023-04-15T09:30:25.276Z,57.64
2023-04-15T09:32:54.264Z,57.50
2023-04-15T09:35:22.710Z,57.39
2023-04-15T09:37:50.775Z,56.89
2023-04-15T09:40:32.599Z,55.42
2023-04-15T09:43:02.799Z,55.06
2023-04-15T09:45:31.056Z,55.53
2023-04-15T09:47:59.912Z,54.98
2023-04-15T09:50:30.673Z,54.81
2023-04-15T09:52:59.646Z,55.26
2023-04-15T09:55:27.372Z,54.45
2023-04-15T09:57:55.167Z,54.71
2023-04-15T10:00:24.279Z,54.48
2023-04-15T10:02:53.147Z,55.08
2023-04-15T10:05:22.006Z,55.10
2023-04-15T10:07:50.738Z,54.78
2023-04-15T10:10:19.198Z,55.02
2023-04-15T10:12:47.799Z,54.25
2023-04-15T10:15:17.923Z,52.73
2023-04-15T10:17:49.173Z,51.74
2023-04-15T10:20:20.606Z,50.60
2023-04-15T10:22:48.729Z,50.53
2023-04-15T10:25:17.014Z,49.54
2023-04-15T10:27:44.981Z,50.16
2023-04-15T10:30:13.862Z,48.68
2023-04-15T10:32:42.584Z,47.97
2023-04-15T10:35:12.735Z,48.38
2023-04-15T10:37:40.421Z,46.84
2023-04-15T10:40:28.820Z,46.03
2023-04-15T10:42:57.465Z,43.99
2023-04-15T10:45:28.044Z,43.32
2023-04-15T10:48:00.470Z,43.16
2023-04-15T10:50:32.779Z,42.38
2023-04-15T10:53:03.393Z,42.57
2023-04-15T10:55:34.189Z,41.93
2023-04-15T10:58:02.997Z,42.05
2023-04-15T11:00:32.453Z,42.77
2023-04-15T11:03:06.310Z,42.53
2023-04-15T11:05:53.667Z,41.20
2023-04-15T11:08:22.091Z,40.80
2023-04-15T11:10:54.875Z,40.93
2023-04-15T11:13:29.436Z,41.58
2023-04-15T11:16:02.118Z,42.10
2023-04-15T11:18:32.994Z,42.51
2023-04-15T11:21:04.469Z,42.14
2023-04-15T11:23:39.311Z,41.88
2023-04-15T11:26:11.671Z,41.45
2023-04-15T11:28:41.384Z,41.52
2023-04-15T11:31:11.843Z,41.29
2023-04-15T11:33:46.436Z,40.59
2023-04-15T11:36:15.744Z,40.72
2023-04-15T11:38:48.524Z,40.30
2023-04-15T11:41:17.070Z,40.58
2023-04-15T11:43:44.791Z,40.19
2023-04-15T11:46:12.510Z,40.66
2023-04-15T11:48:43.861Z,40.57
2023-04-15T11:51:12.824Z,40.75
2023-04-15T11:53:43.860Z,40.86
2023-04-15T11:56:13.302Z,41.07
2023-04-15T11:58:40.997Z,41.30
2023-04-15T12:01:08.856Z,41.19
2023-04-15T12:03:41.562Z,40.97
2023-04-15T12:06:16.482Z,39.97
2023-04-15T12:09:00.545Z,41.13
2023-04-15T12:11:36.932Z,41.34
2023-04-15T12:14:07.620Z,41.30
2023-04-15T12:16:47.862Z,40.44
2023-04-15T12:19:19.092Z,40.63
2023-04-15T12:21:48.702Z,39.98
2023-04-15T12:24:22.065Z,39.52
2023-04-15T12:26:52.475Z,39.60
2023-04-15T12:29:22.144Z,40.18
2023-04-15T12:31:52.181Z,39.59
2023-04-15T12:34:26.844Z,38.58
2023-04-15T12:36:55.044Z,38.32
2023-04-15T12:39:25.395Z,36.16
2023-04-15T12:41:53.529Z,36.41
2023-04-15T12:44:23.935Z,35.66
2023-04-15T12:46:52.860Z,35.60
2023-04-15T12:49:21.418Z,36.65
2023-04-15T12:51:50.339Z,35.68
2023-04-15T12:54:18.490Z,35.77
2023-04-15T12:56:49.147Z,35.81
2023-04-15T12:59:18.598Z,35.76
2023-04-15T13:01:47.370Z,35.99
2023-04-15T13:04:15.658Z,36.13
2023-04-15T13:06:43.999Z,37.09
2023-04-15T13:09:11.753Z,37.30
2023-04-15T13:11:39.644Z,36.87
2023-04-15T13:14:11.398Z,37.77
2023-04-15T13:16:39.085Z,37.56
2023-04-15T13:19:06.803Z,37.98
2023-04-15T13:21:35.930Z,38.12
2023-04-15T13:24:07.196Z,38.67
2023-04-15T13:26:35.231Z,38.25
2023-04-15T13:29:03.027Z,38.75
2023-04-15T13:31:32.267Z,37.64
2023-04-15T13:34:00.308Z,37.76
2023-04-15T13:36:28.268Z,37.66
2023-04-15T13:38:56.763Z,37.58
2023-04-15T13:41:24.443Z,38.88
2023-04-15T13:43:52.276Z,39.45
2023-04-15T13:46:19.988Z,40.44
2023-04-15T13:48:49.045Z,40.40
2023-04-15T13:51:16.640Z,40.72
2023-04-15T13:53:44.366Z,39.74
2023-04-15T13:56:12.293Z,39.65
2023-04-15T13:58:42.312Z,40.68
2023-04-15T14:01:10.066Z,40.27
2023-04-15T14:03:38.175Z,40.23
2023-04-15T14:06:07.882Z,41.04
2023-04-15T14:08:35.578Z,41.31
2023-04-15T14:11:03.289Z,41.44
2023-04-15T14:13:31.338Z,41.24
2023-04-15T14:15:59.039Z,41.73
2023-04-15T14:18:26.984Z,42.21
2023-04-15T14:20:55.100Z,42.47
2023-04-15T14:23:24.374Z,42.77
2023-04-15T14:25:52.478Z,42.52
2023-04-15T14:28:20.318Z,43.27
2023-04-15T14:30:48.008Z,43.39
2023-04-15T14:33:16.295Z,43.70
2023-04-15T14:35:43.920Z,46.39
2023-04-15T14:38:11.749Z,49.57
2023-04-15T14:40:42.273Z,52.30
2023-04-15T14:43:10.034Z,54.01
2023-04-15T14:45:41.824Z,57.72
2023-04-15T14:48:13.421Z,61.23
2023-04-15T14:50:41.372Z,63.15
2023-04-15T14:53:09.166Z,66.50
2023-04-15T14:55:36.802Z,69.83
2023-04-15T14:58:06.088Z,68.80
2023-04-15T15:00:33.855Z,70.70
2023-04-15T15:03:01.831Z,68.51
2023-04-15T15:05:29.789Z,69.15
2023-04-15T15:07:57.544Z,69.93
2023-04-15T15:10:33.195Z,71.43
2023-04-15T15:13:14.545Z,72.02
2023-04-15T15:15:42.417Z,72.88
2023-04-15T15:18:10.245Z,74.12
2023-04-15T15:20:38.351Z,73.19
2023-04-15T15:23:06.098Z,73.50
2023-04-15T15:25:33.714Z,73.92
2023-04-15T15:28:01.301Z,72.09
2023-04-15T15:30:30.589Z,71.85
2023-04-15T15:32:58.280Z,72.21
2023-04-15T15:35:26.946Z,73.42
2023-04-15T15:37:54.977Z,75.60
2023-04-15T15:40:22.904Z,76.42
2023-04-15T15:42:51.057Z,77.11
2023-04-15T15:45:18.883Z,76.67
2023-04-15T15:47:48.488Z,76.61
2023-04-15T15:50:16.222Z,77.62
2023-04-15T15:52:44.167Z,76.06
2023-04-15T15:55:11.858Z,76.17
2023-04-15T15:57:39.490Z,76.12
2023-04-15T16:00:12.082Z,77.99
2023-04-15T16:03:05.177Z,77.47
2023-04-15T16:05:29.759Z,78.82
2023-04-15T16:07:57.451Z,78.24
2023-04-15T16:10:25.312Z,77.88
2023-04-15T16:12:53.079Z,78.17
2023-04-15T16:15:21.114Z,79.02
2023-04-15T16:17:48.858Z,78.02
2023-04-15T16:20:16.753Z,77.87
2023-04-15T16:22:45.909Z,76.83
2023-04-15T16:25:13.650Z,77.59
2023-04-15T16:27:57.170Z,77.90
2023-04-15T16:30:28.978Z,78.45
2023-04-15T16:32:57.308Z,76.82
2023-04-15T16:35:25.092Z,77.08
2023-04-15T16:37:54.243Z,77.56
2023-04-15T16:40:21.953Z,77.26
2023-04-15T16:42:50.645Z,75.55
2023-04-15T16:45:18.419Z,77.30
2023-04-15T16:47:46.194Z,78.44
2023-04-15T16:50:13.981Z,77.75
2023-04-15T16:52:41.720Z,78.60
2023-04-15T16:55:11.237Z,79.40
2023-04-15T16:58:01.186Z,79.30
2023-04-15T17:00:27.190Z,79.08
2023-04-15T17:02:56.208Z,80.37
2023-04-15T17:05:24.039Z,80.60
2023-04-15T17:07:52.468Z,81.00
2023-04-15T17:10:21.630Z,81.39
2023-04-15T17:12:51.822Z,80.73
2023-04-15T17:15:19.925Z,81.11
2023-04-15T17:17:47.967Z,82.29
2023-04-15T17:20:17.393Z,82.65
2023-04-15T17:22:45.235Z,81.95
2023-04-15T17:25:14.476Z,82.24
2023-04-15T17:27:43.570Z,81.09
2023-04-15T17:30:11.777Z,81.16
2023-04-15T17:32:40.253Z,81.17
2023-04-15T17:35:09.024Z,81.91
2023-04-15T17:37:36.850Z,81.66
2023-04-15T17:40:06.629Z,82.25
2023-04-15T17:42:36.252Z,83.05
2023-04-15T17:45:06.182Z,82.49
2023-04-15T17:47:34.017Z,82.89
2023-04-15T17:50:01.743Z,82.96
2023-04-15T17:52:29.410Z,82.89
2023-04-15T17:54:57.093Z,83.50
2023-04-15T17:57:25.201Z,84.45
2023-04-15T17:59:52.910Z,83.73
2023-04-15T18:02:22.156Z,84.82
2023-04-15T18:04:50.380Z,85.04
2023-04-15T18:07:18.273Z,84.95
2023-04-15T18:09:46.233Z,85.10
2023-04-15T18:12:13.894Z,83.82
2023-04-15T18:14:41.515Z,85.14
2023-04-15T18:17:09.457Z,85.23
2023-04-15T18:19:38.506Z,85.55
2023-04-15T18:22:06.267Z,86.02
2023-04-15T18:24:33.952Z,86.22
2023-04-15T18:27:01.776Z,86.41
2023-04-15T18:29:31.118Z,86.24
2023-04-15T18:32:00.074Z,86.59
2023-04-15T18:34:28.069Z,86.59
2023-04-15T18:36:59.930Z,87.47
2023-04-15T18:39:27.728Z,87.93
2023-04-15T18:41:56.450Z,88.17
2023-04-15T18:44:24.667Z,88.20
2023-04-15T18:46:52.571Z,88.42
2023-04-15T18:49:20.274Z,88.37
2023-04-15T18:51:47.986Z,87.80
2023-04-15T18:54:17.207Z,88.58
2023-04-15T18:56:45.121Z,87.69
2023-04-15T18:59:28.876Z,88.23
2023-04-15T19:01:58.999Z,88.53
2023-04-15T19:04:28.885Z,88.08
2023-04-15T19:06:57.070Z,88.33
2023-04-15T19:09:26.328Z,87.90
2023-04-15T19:11:53.985Z,88.69
2023-04-15T19:14:21.795Z,88.50
2023-04-15T19:16:49.545Z,88.51
2023-04-15T19:19:17.283Z,88.92
2023-04-15T19:21:45.822Z,88.32
2023-04-15T19:24:13.621Z,89.15
2023-04-15T19:26:42.822Z,89.18
2023-04-15T19:29:11.662Z,89.38
2023-04-15T19:31:39.575Z,89.12
2023-04-15T19:34:07.428Z,89.08
2023-04-15T19:36:35.339Z,89.08
2023-04-15T19:39:03.172Z,89.48
2023-04-15T19:41:31.355Z,89.58
2023-04-15T19:44:00.925Z,89.48
2023-04-15T19:46:28.695Z,89.45
2023-04-15T19:48:56.634Z,90.48
2023-04-15T19:51:24.421Z,90.31
2023-04-15T19:53:53.997Z,90.28
2023-04-15T19:56:23.872Z,90.26
2023-04-15T19:58:53.003Z,91.07
2023-04-15T20:01:22.865Z,91.18
2023-04-15T20:03:50.701Z,91.46
2023-04-15T20:06:18.657Z,91.84
2023-04-15T20:08:46.609Z,91.97
2023-04-15T20:11:15.026Z,92.24
2023-04-15T20:13:43.047Z,92.72
2023-04-15T20:16:11.802Z,93.21
2023-04-15T20:18:41.345Z,93.30
2023-04-15T20:21:09.077Z,93.68
2023-04-15T20:23:38.414Z,93.60
2023-04-15T20:26:06.453Z,93.93
2023-04-15T20:28:34.454Z,94.08
2023-04-15T20:31:02.830Z,93.89
2023-04-15T20:33:30.621Z,93.86
2023-04-15T20:35:59.986Z,92.72
2023-04-15T20:38:27.738Z,93.18
2023-04-15T20:40:55.730Z,93.10
2023-04-15T20:43:23.769Z,92.56
2023-04-15T20:45:53.894Z,91.36
2023-04-15T20:48:22.772Z,91.97
2023-04-15T20:50:50.761Z,92.07
2023-04-15T20:53:19.911Z,92.16
2023-04-15T20:55:47.717Z,92.48
2023-04-15T20:58:15.462Z,91.55
2023-04-15T21:00:43.367Z,92.18
2023-04-15T21:03:11.946Z,92.02
2023-04-15T21:05:39.909Z,91.77
2023-04-15T21:08:08.207Z,90.78
2023-04-15T21:10:37.336Z,90.63
2023-04-15T21:13:06.439Z,90.83
2023-04-15T21:15:34.404Z,90.73
2023-04-15T21:18:02.194Z,90.61
2023-04-15T21:20:30.063Z,91.01
2023-04-15T21:22:57.732Z,91.21
2023-04-15T21:25:25.557Z,91.21
2023-04-15T21:27:54.645Z,91.04
2023-04-15T21:30:23.736Z,91.23
2023-04-15T21:32:51.589Z,90.98
2023-04-15T21:35:19.401Z,90.79
2023-04-15T21:37:47.234Z,90.34
2023-04-15T21:40:16.340Z,90.67
2023-04-15T21:42:44.039Z,90.45
2023-04-15T21:45:13.606Z,90.75
2023-04-15T21:48:00.438Z,90.99
2023-04-15T21:50:29.303Z,90.97
2023-04-15T21:52:56.992Z,90.80
2023-04-15T21:55:24.833Z,90.11
2023-04-15T21:57:52.636Z,90.50
2023-04-15T22:00:23.121Z,90.36
2023-04-15T22:02:50.975Z,90.07
2023-04-15T22:05:19.142Z,90.24
2023-04-15T22:07:47.025Z,89.53
2023-04-15T22:10:14.805Z,89.67
2023-04-15T22:12:42.720Z,89.37
2023-04-15T22:15:11.055Z,89.07
2023-04-15T22:17:40.171Z,89.24
2023-04-15T22:20:09.498Z,89.17
2023-04-15T22:22:43.223Z,89.23
2023-04-15T22:25:12.691Z,88.47
2023-04-15T22:27:40.477Z,89.17
2023-04-15T22:30:09.618Z,88.87
2023-04-15T22:32:37.977Z,88.79
2023-04-15T22:35:07.775Z,88.87
2023-04-15T22:37:35.672Z,88.66
2023-04-15T22:40:03.453Z,88.56
2023-04-15T22:42:31.145Z,89.14
2023-04-15T22:44:58.832Z,88.70
2023-04-15T22:47:27.112Z,88.81
2023-04-15T22:49:54.910Z,88.94
2023-04-15T22:52:30.755Z,89.58
2023-04-15T22:54:59.300Z,89.38
2023-04-15T22:57:27.842Z,89.56
2023-04-15T22:59:55.578Z,89.61
2023-04-15T23:02:23.514Z,90.26
2023-04-15T23:04:51.374Z,90.30
2023-04-15T23:07:19.142Z,89.87
2023-04-15T23:09:48.240Z,89.44
2023-04-15T23:12:15.982Z,89.57
2023-04-15T23:14:43.698Z,89.44
2023-04-15T23:17:12.230Z,89.55
2023-04-15T23:19:39.885Z,89.51
2023-04-15T23:22:10.451Z,89.61
2023-04-15T23:24:38.194Z,90.21
2023-04-15T23:27:07.246Z,89.63
2023-04-15T23:29:34.925Z,89.67
2023-04-15T23:32:02.724Z,89.80
2023-04-15T23:34:30.527Z,89.96
2023-04-15T23:36:58.193Z,90.45
2023-04-15T23:39:25.891Z,90.30
2023-04-15T23:41:53.832Z,90.94
2023-04-15T23:44:22.838Z,90.25
2023-04-15T23:46:51.260Z,90.72
2023-04-15T23:49:20.347Z,90.08
2023-04-15T23:51:48.444Z,90.37
2023-04-15T23:54:16.228Z,90.80
2023-04-15T23:56:43.954Z,90.70
2023-04-15T23:59:11.830Z,90.57
